»·PEaware :: UPS861 KPHX-KONT

UPS861 :: KPHX-KONT

FLIGHT INFORMATION

Flight Status: Arrived
Operator:
United Parcel Service
More flights by this operator :: More flights under this callsign
Pilot: Brandon G. (13)
Aircraft: BOEING 757-200
(B752)
More flights by this aircraft type
Origin: KPHX Phoenix Sky Harbor Intl
United States
Destination: KONT Ontario Intl
United States
More flights between these airports :: More routes between these airports
Route: IZZZO6 HRRBR PHRED SCBBY1
File this flight plan on PilotEdge
Remarks:
Altitude:
(Current/Filed)
28,000ft
Speed:
(Current/Filed)
425kts
Departed: 02-Dec-17 10:06 PM
Arrived: 02-Dec-17 10:55 PM
Distance/Time
Traveled:
280nm/0:49
Distance/Time
To Go:
Arrived

Flight Plot

Page will automatically refresh every two minutes.

Flight plan parsing failed; only flown route is shown


Map Options




Map Legend


Flown Route
Filed Route
Departure Airport
Arrival Airport
Navaid (VOR, NDB)
Fix

Horizontal Profiles

Position Reports

Time Latitude Longitude Heading Altitude Ground
Speed
02-Dec-17 21:22 33.425810 -112.018054 90 1120ft 0kts
02-Dec-17 21:23 33.425810 -112.018054 90 1120ft 0kts
02-Dec-17 21:24 33.425810 -112.018054 90 1120ft 0kts
02-Dec-17 21:25 33.425810 -112.018054 90 1120ft 0kts
02-Dec-17 21:26 33.425810 -112.018054 90 1120ft 0kts
02-Dec-17 21:27 33.425810 -112.018054 90 1120ft 0kts
02-Dec-17 21:28 33.425810 -112.018054 90 1120ft 0kts
02-Dec-17 21:29 33.425810 -112.018054 90 1120ft 0kts
02-Dec-17 21:30 33.425810 -112.018054 90 1120ft 0kts
02-Dec-17 21:31 33.425810 -112.018054 90 1120ft 0kts
02-Dec-17 21:32 33.425810 -112.018054 90 1120ft 0kts
02-Dec-17 21:33 33.425810 -112.018054 90 1120ft 0kts
02-Dec-17 21:34 33.425810 -112.018054 90 1120ft 0kts
02-Dec-17 21:35 33.425810 -112.018054 90 1120ft 0kts
02-Dec-17 21:36 33.425810 -112.018054 90 1120ft 0kts
02-Dec-17 21:37 33.425810 -112.018054 90 1120ft 0kts
02-Dec-17 21:38 33.425810 -112.018054 90 1120ft 0kts
02-Dec-17 21:39 33.425810 -112.018054 90 1120ft 0kts
02-Dec-17 21:40 33.425810 -112.018054 90 1120ft 0kts
02-Dec-17 21:41 33.425810 -112.018054 90 1120ft 0kts
02-Dec-17 21:42 33.425810 -112.018054 90 1120ft 0kts
02-Dec-17 21:43 33.425810 -112.018054 90 1120ft 0kts
02-Dec-17 21:44 33.425810 -112.018054 90 1120ft 0kts
02-Dec-17 21:45 33.425810 -112.018054 90 1120ft 0kts
02-Dec-17 21:46 33.425810 -112.018054 90 1120ft 0kts
02-Dec-17 21:47 33.425810 -112.018054 90 1120ft 0kts
02-Dec-17 21:48 33.425810 -112.018054 90 1120ft 0kts
02-Dec-17 21:49 33.425810 -112.018054 90 1120ft 0kts
02-Dec-17 21:50 33.425810 -112.018054 90 1120ft 0kts
02-Dec-17 21:51 33.425810 -112.018054 90 1120ft 0kts
02-Dec-17 21:52 33.425810 -112.018054 90 1120ft 0kts
02-Dec-17 21:53 33.425810 -112.018054 90 1120ft 0kts
02-Dec-17 21:54 33.425810 -112.018054 90 1120ft 0kts
02-Dec-17 21:55 33.425810 -112.018054 90 1120ft 0kts
02-Dec-17 21:56 33.425810 -112.018054 90 1120ft 0kts
02-Dec-17 21:57 33.425810 -112.018054 90 1120ft 0kts
02-Dec-17 21:58 33.425810 -112.018054 90 1120ft 0kts
02-Dec-17 21:59 33.425810 -112.018054 90 1120ft 0kts
02-Dec-17 22:00 33.425810 -112.018054 90 1120ft 0kts
02-Dec-17 22:01 33.425810 -112.018054 90 1120ft 0kts
02-Dec-17 22:02 33.425810 -112.018054 90 1120ft 0kts
02-Dec-17 22:03 33.425810 -112.018054 90 1120ft 0kts
02-Dec-17 22:04 33.425810 -112.018054 90 1120ft 0kts
02-Dec-17 22:05 33.425810 -112.018019 89 1120ft 1kts
02-Dec-17 22:06 33.426846 -112.017377 1 1120ft 6kts
02-Dec-17 22:07 33.427808 -112.015824 91 1123ft 7kts
02-Dec-17 22:08 33.427754 -112.012620 90 1124ft 10kts
02-Dec-17 22:09 33.427742 -112.008489 90 1124ft 13kts
02-Dec-17 22:10 33.428846 -112.005965 274 1125ft 12kts
02-Dec-17 22:11 33.428576 -112.027776 267 1490ft 175kts
02-Dec-17 22:12 33.437010 -112.118778 281 4903ft 317kts
02-Dec-17 22:13 33.444502 -112.214453 270 10999ft 282kts
02-Dec-17 22:14 33.446576 -112.317681 269 13590ft 348kts
02-Dec-17 22:15 33.448271 -112.441926 269 16725ft 388kts
02-Dec-17 22:16 33.449401 -112.572299 270 20244ft 400kts
02-Dec-17 22:17 33.451537 -112.705331 270 23212ft 414kts
02-Dec-17 22:18 33.461252 -112.841078 281 26666ft 405kts
02-Dec-17 22:19 33.484906 -112.969149 280 28005ft 389kts
02-Dec-17 22:20 33.508311 -113.095250 279 28017ft 389kts
02-Dec-17 22:21 33.531720 -113.221269 279 28016ft 389kts
02-Dec-17 22:22 33.554962 -113.347694 279 28015ft 389kts
02-Dec-17 22:23 33.578005 -113.474028 279 28013ft 389kts
02-Dec-17 22:24 33.601389 -113.600395 280 28005ft 389kts
02-Dec-17 22:25 33.624831 -113.725061 279 28007ft 389kts
02-Dec-17 22:26 33.648271 -113.857343 273 28025ft 430kts
02-Dec-17 22:27 33.647603 -114.001218 267 28000ft 433kts
02-Dec-17 22:28 33.648587 -114.145567 275 27998ft 434kts
02-Dec-17 22:29 33.662662 -114.289056 274 27995ft 434kts
02-Dec-17 22:30 33.676759 -114.432853 274 27993ft 434kts
02-Dec-17 22:31 33.690723 -114.576530 275 27992ft 434kts
02-Dec-17 22:32 33.701433 -114.686500 274 28002ft 434kts
02-Dec-17 22:33 33.717196 -114.851482 274 27999ft 434kts
02-Dec-17 22:34 33.730504 -114.995204 274 27998ft 434kts
02-Dec-17 22:35 33.741589 -115.114993 274 27997ft 432kts
02-Dec-17 22:36 33.755657 -115.257491 274 27993ft 431kts
02-Dec-17 22:37 33.772473 -115.423758 274 27978ft 430kts
02-Dec-17 22:38 33.787223 -115.565754 274 27974ft 430kts
02-Dec-17 22:39 33.797271 -115.665662 274 27980ft 430kts
02-Dec-17 22:40 33.813082 -115.823798 274 26835ft 405kts
02-Dec-17 22:41 33.824131 -115.934440 274 25168ft 398kts
02-Dec-17 22:42 33.836880 -116.064178 273 22819ft 389kts
02-Dec-17 22:43 33.849508 -116.191931 274 20760ft 382kts
02-Dec-17 22:44 33.862820 -116.317587 275 18941ft 377kts
02-Dec-17 22:45 33.875772 -116.437166 275 17175ft 372kts
02-Dec-17 22:46 33.903531 -116.557875 284 14583ft 375kts
02-Dec-17 22:47 33.931732 -116.670966 285 12558ft 360kts
02-Dec-17 22:48 33.946831 -116.786853 267 10581ft 346kts
02-Dec-17 22:49 33.943447 -116.894892 267 10226ft 294kts
02-Dec-17 22:50 33.950061 -116.985645 291 9432ft 271kts
02-Dec-17 22:51 33.978420 -117.068067 292 8276ft 264kts
02-Dec-17 22:52 34.006574 -117.149245 292 6989ft 262kts
02-Dec-17 22:53 34.027657 -117.229841 286 6040ft 246kts
02-Dec-17 22:54 34.044910 -117.308865 286 5097ft 237kts
02-Dec-17 22:55 34.055518 -117.384398 268 4324ft 222kts
02-Dec-17 22:56 34.054826 -117.453275 271 3680ft 175kts
02-Dec-17 22:57 34.054921 -117.503748 270 2238ft 138kts
02-Dec-17 22:58 34.054974 -117.548466 270 1517ft 131kts
02-Dec-17 22:59 34.054920 -117.592115 270 928ft 122kts
02-Dec-17 23:00 34.054924 -117.608806 270 933ft 16kts
02-Dec-17 23:01 34.053806 -117.609470 89 929ft 16kts
02-Dec-17 23:02 34.053842 -117.603408 90 926ft 22kts
02-Dec-17 23:03 34.053844 -117.595341 91 922ft 25kts
02-Dec-17 23:04 34.053839 -117.586712 90 922ft 26kts
02-Dec-17 23:05 34.052381 -117.579068 89 920ft 24kts
02-Dec-17 23:06 34.050984 -117.578496 269 914ft 0kts

Navigation Log

Ident Type
Flight plan parsing failed, navigation log unavailable